Time;durP1;ratioP1;P1;durP2;ratioP2;P2;SDS_P1;SDS_P2;PMS_P1;PMS_P2;Temp;Humidity;BMP_temperature;BMP_pressure;BME280_temperature;BME280_humidity;BME280_pressure;Samples;Min_cycle;Max_cycle;Signal;HPM_P1;HPM_P2
2022/10/17 00:00:11;;;;;;;6.80;2.13;;;10.80;99.90;;;;;;5094968;28;20148;-82
2022/10/17 00:02:38;;;;;;;3.92;2.00;;;10.80;99.90;;;;;;5095449;28;20128;-81
2022/10/17 00:05:04;;;;;;;7.63;2.20;;;10.80;99.90;;;;;;5095463;28;20574;-81
2022/10/17 00:07:31;;;;;;;8.38;2.10;;;10.90;99.90;;;;;;5095275;28;20537;-81
2022/10/17 00:09:58;;;;;;;8.02;2.20;;;11.00;99.90;;;;;;5095083;28;20039;-82
2022/10/17 00:12:25;;;;;;;3.55;1.67;;;11.00;99.90;;;;;;5078717;28;20040;-82
2022/10/17 00:14:52;;;;;;;5.53;2.05;;;11.00;99.90;;;;;;5095235;28;20044;-82
2022/10/17 00:17:18;;;;;;;4.55;2.00;;;11.10;99.90;;;;;;5095254;28;20395;-82
2022/10/17 00:19:45;;;;;;;6.60;2.00;;;11.10;99.90;;;;;;5095252;28;20036;-82
2022/10/17 00:22:12;;;;;;;10.23;2.30;;;11.20;99.90;;;;;;5091226;28;20047;-81
2022/10/17 00:24:38;;;;;;;6.18;2.25;;;11.20;99.90;;;;;;5108267;28;20527;-81
2022/10/17 00:27:05;;;;;;;6.13;2.10;;;11.20;99.90;;;;;;5091427;28;20618;-81
2022/10/17 00:29:32;;;;;;;6.60;2.03;;;11.20;99.90;;;;;;5091303;28;20429;-81
2022/10/17 00:31:59;;;;;;;8.48;2.45;;;11.30;99.90;;;;;;5085062;28;20036;-82
2022/10/17 00:34:28;;;;;;;13.27;2.58;;;11.30;99.90;;;;;;5094345;28;20043;-81
2022/10/17 00:36:55;;;;;;;9.35;2.35;;;11.30;99.90;;;;;;5111455;28;20480;-81
2022/10/17 00:39:21;;;;;;;6.85;2.20;;;11.30;99.90;;;;;;5094449;28;20047;-81
2022/10/17 00:41:48;;;;;;;5.95;2.30;;;11.30;99.90;;;;;;5093842;28;20075;-81
2022/10/17 00:44:30;;;;;;;7.30;2.92;;;11.30;99.90;;;;;;5094351;28;20126;-81
2022/10/17 00:47:00;;;;;;;14.50;2.13;;;11.30;99.90;;;;;;5128199;28;20135;-82
2022/10/17 00:49:31;;;;;;;5.28;2.20;;;11.40;99.90;;;;;;5074889;28;20124;-81
2022/10/17 00:52:05;;;;;;;7.65;2.50;;;11.40;99.90;;;;;;5091134;28;20580;-81
2022/10/17 00:54:35;;;;;;;7.65;2.50;;;11.40;99.90;;;;;;5094866;28;20032;-82
2022/10/17 00:57:03;;;;;;;10.45;2.50;;;11.50;99.90;;;;;;5111147;28;20100;-82
2022/10/17 00:59:32;;;;;;;11.93;2.88;;;11.50;99.90;;;;;;5110835;28;20412;-82
2022/10/17 01:02:21;;;;;;;6.30;2.30;;;11.50;99.90;;;;;;5111087;28;20044;-82
2022/10/17 01:04:53;;;;;;;6.90;2.30;;;11.60;99.90;;;;;;5110153;28;20052;-81
2022/10/17 01:07:20;;;;;;;10.27;2.45;;;11.60;99.90;;;;;;5110853;28;20089;-81
2022/10/17 01:09:48;;;;;;;12.05;2.90;;;11.60;99.90;;;;;;5110893;28;20495;-82
2022/10/17 01:12:20;;;;;;;8.88;2.47;;;11.70;99.90;;;;;;5127846;28;20130;-82
2022/10/17 01:14:52;;;;;;;5.30;2.88;;;11.70;99.90;;;;;;5110914;28;20039;-81
2022/10/17 01:17:34;;;;;;;7.38;2.55;;;11.70;99.90;;;;;;5127715;28;20071;-81
2022/10/17 01:20:40;;;;;;;9.40;3.15;;;11.80;99.90;;;;;;5110589;28;20564;-82
2022/10/17 01:23:58;;;;;;;8.95;2.90;;;11.80;99.90;;;;;;5110776;28;20488;-82
2022/10/17 01:26:55;;;;;;;6.45;2.75;;;11.80;99.90;;;;;;5088089;28;20101;-82
2022/10/17 01:29:42;;;;;;;5.13;2.38;;;11.80;99.90;;;;;;5109874;28;20039;-81
2022/10/17 01:32:21;;;;;;;7.30;2.80;;;11.80;99.90;;;;;;5110679;28;20040;-82
2022/10/17 01:34:56;;;;;;;7.15;2.78;;;11.90;99.90;;;;;;5110020;28;20044;-82
2022/10/17 01:37:35;;;;;;;7.60;2.80;;;11.90;99.90;;;;;;5110224;28;20122;-81
2022/10/17 01:40:28;;;;;;;9.23;3.08;;;11.90;99.90;;;;;;5127110;28;20047;-82
2022/10/17 01:43:08;;;;;;;12.93;2.80;;;11.90;99.90;;;;;;5104448;28;20070;-81
2022/10/17 01:45:44;;;;;;;11.88;2.53;;;11.90;99.90;;;;;;5109463;28;20039;-81
2022/10/17 01:48:16;;;;;;;6.85;2.70;;;11.90;99.90;;;;;;5127079;28;20039;-82
2022/10/17 01:50:51;;;;;;;7.10;3.13;;;12.00;99.90;;;;;;5109692;28;20051;-82
2022/10/17 01:53:26;;;;;;;8.23;3.40;;;12.00;99.90;;;;;;5109779;28;20036;-82
2022/10/17 01:55:58;;;;;;;5.28;2.55;;;12.00;99.90;;;;;;5109892;28;20079;-82
2022/10/17 01:58:32;;;;;;;7.80;2.90;;;12.00;99.90;;;;;;5098203;28;20455;-81
2022/10/17 02:01:03;;;;;;;11.37;3.23;;;12.00;99.90;;;;;;5110103;28;20040;-81
2022/10/17 02:03:31;;;;;;;4.68;2.80;;;12.00;99.90;;;;;;5109361;28;20034;-81
2022/10/17 02:05:57;;;;;;;8.18;3.20;;;12.00;99.90;;;;;;5126517;28;20068;-82
2022/10/17 02:08:43;;;;;;;8.23;3.00;;;12.00;99.90;;;;;;5092714;28;20068;-81
2022/10/17 02:11:19;;;;;;;6.85;2.92;;;12.00;99.90;;;;;;5126546;28;20044;-81
2022/10/17 02:13:54;;;;;;;8.52;3.53;;;12.00;99.90;;;;;;5109395;28;20078;-82
2022/10/17 02:16:34;;;;;;;7.22;3.10;;;12.00;99.90;;;;;;5109538;28;20040;-82
2022/10/17 02:19:32;;;;;;;11.00;3.38;;;12.00;99.90;;;;;;5109725;28;20043;-81
2022/10/17 02:22:28;;;;;;;5.57;2.67;;;12.00;99.90;;;;;;5126206;28;20040;-82
2022/10/17 02:25:12;;;;;;;8.45;3.22;;;11.90;99.90;;;;;;5109355;28;20102;-82
2022/10/17 02:27:51;;;;;;;7.72;3.10;;;11.90;99.90;;;;;;5125849;28;20522;-82
2022/10/17 02:30:39;;;;;;;6.75;2.95;;;11.90;99.90;;;;;;5109378;28;20040;-82
2022/10/17 02:33:09;;;;;;;9.98;3.13;;;11.80;99.90;;;;;;5109232;28;20036;-81
2022/10/17 02:35:42;;;;;;;6.78;3.40;;;11.80;99.90;;;;;;5109032;28;20042;-82
2022/10/17 02:38:11;;;;;;;8.38;3.15;;;11.80;99.90;;;;;;5109193;28;20107;-82
2022/10/17 02:40:41;;;;;;;7.05;2.90;;;11.80;99.90;;;;;;5108901;28;20474;-81
2022/10/17 02:43:07;;;;;;;5.70;3.10;;;11.80;99.90;;;;;;5109173;28;20484;-81
2022/10/17 02:45:36;;;;;;;6.80;3.40;;;11.80;99.90;;;;;;5109415;28;20132;-82
2022/10/17 02:48:18;;;;;;;8.38;3.20;;;11.80;99.90;;;;;;5125891;28;20157;-81
2022/10/17 02:51:10;;;;;;;12.93;3.60;;;11.80;99.90;;;;;;5109879;28;20090;-81
2022/10/17 02:53:52;;;;;;;7.35;3.55;;;11.90;99.90;;;;;;5126181;28;20079;-81
2022/10/17 02:56:20;;;;;;;9.00;3.53;;;11.90;99.90;;;;;;5109347;28;20112;-82
2022/10/17 02:58:54;;;;;;;7.10;3.35;;;12.00;99.90;;;;;;5077770;28;20404;-82
2022/10/17 03:01:21;;;;;;;7.07;3.42;;;11.90;99.90;;;;;;5089433;28;20132;-81
2022/10/17 03:03:48;;;;;;;8.55;3.80;;;11.90;99.90;;;;;;5088578;28;20123;-82
2022/10/17 03:06:15;;;;;;;7.40;3.83;;;11.90;99.90;;;;;;5072685;28;20036;-82
2022/10/17 03:08:42;;;;;;;8.77;4.15;;;11.90;99.90;;;;;;5101065;28;20131;-82
2022/10/17 03:11:08;;;;;;;8.13;3.53;;;11.90;99.90;;;;;;5096482;28;20048;-82
2022/10/17 03:13:35;;;;;;;7.40;3.42;;;11.90;99.90;;;;;;5129838;28;20055;-82
2022/10/17 03:16:02;;;;;;;10.57;3.67;;;11.90;99.90;;;;;;5096347;28;20085;-82
2022/10/17 03:18:28;;;;;;;7.85;4.00;;;11.90;99.90;;;;;;5093141;28;20028;-82
2022/10/17 03:20:55;;;;;;;5.72;3.55;;;11.90;99.90;;;;;;5076080;28;20039;-82
2022/10/17 03:23:22;;;;;;;15.35;4.00;;;11.90;99.90;;;;;;5093084;28;20561;-82
2022/10/17 03:25:48;;;;;;;5.50;3.67;;;11.90;99.90;;;;;;5075842;28;20059;-81
2022/10/17 03:28:15;;;;;;;6.43;3.90;;;11.80;99.90;;;;;;5075997;28;20039;-82
2022/10/17 03:30:42;;;;;;;8.73;4.20;;;11.80;99.90;;;;;;5091939;28;20044;-82
2022/10/17 03:33:08;;;;;;;7.70;3.78;;;11.80;99.90;;;;;;5075742;28;20029;-82
2022/10/17 03:35:38;;;;;;;7.20;3.67;;;11.80;99.90;;;;;;5075791;28;20546;-82
2022/10/17 03:38:05;;;;;;;7.57;3.85;;;11.70;99.90;;;;;;5092698;28;20119;-82
2022/10/17 03:40:32;;;;;;;8.43;3.90;;;11.70;99.90;;;;;;5084391;28;20124;-82
2022/10/17 03:42:58;;;;;;;6.22;3.67;;;11.70;99.90;;;;;;5075473;28;20638;-81
2022/10/17 03:45:25;;;;;;;8.50;3.92;;;11.70;99.90;;;;;;5075655;28;20044;-81
2022/10/17 03:47:52;;;;;;;6.60;4.05;;;11.70;99.90;;;;;;5092092;28;20072;-82
2022/10/17 03:50:19;;;;;;;6.18;3.90;;;11.70;99.90;;;;;;5075715;28;20070;-82
2022/10/17 03:52:47;;;;;;;6.97;4.43;;;11.70;99.90;;;;;;5075255;28;20037;-81
2022/10/17 03:55:14;;;;;;;6.45;3.95;;;11.70;99.90;;;;;;5075581;28;20545;-82
2022/10/17 03:57:41;;;;;;;6.93;4.07;;;11.70;99.90;;;;;;5075447;28;20659;-82
2022/10/17 04:00:08;;;;;;;12.15;4.53;;;11.70;99.90;;;;;;5075643;28;20128;-82
2022/10/17 04:02:35;;;;;;;8.10;4.30;;;11.70;99.90;;;;;;5091941;28;20047;-81
2022/10/17 04:05:01;;;;;;;7.80;4.07;;;11.70;99.90;;;;;;5092059;28;20131;-82
2022/10/17 04:07:28;;;;;;;7.55;4.20;;;11.70;99.90;;;;;;5075363;28;20044;-82
2022/10/17 04:09:55;;;;;;;10.10;4.22;;;11.70;99.90;;;;;;5091236;28;20040;-82
2022/10/17 04:12:21;;;;;;;12.70;4.55;;;11.80;99.90;;;;;;5095132;28;20044;-82
2022/10/17 04:14:48;;;;;;;8.07;4.10;;;11.70;99.90;;;;;;5111467;28;20039;-81
2022/10/17 04:17:15;;;;;;;11.55;4.82;;;11.70;99.90;;;;;;5095197;28;20551;-82
2022/10/17 04:19:41;;;;;;;8.02;3.85;;;11.70;99.90;;;;;;5077381;28;20492;-82
2022/10/17 04:22:08;;;;;;;8.20;4.18;;;11.80;99.90;;;;;;5091545;28;20603;-83
2022/10/17 04:24:35;;;;;;;7.38;4.28;;;11.80;99.90;;;;;;5074729;28;20037;-83
2022/10/17 04:27:01;;;;;;;7.20;4.20;;;11.80;99.90;;;;;;5074337;28;20049;-82
2022/10/17 04:29:28;;;;;;;9.52;4.68;;;11.80;99.90;;;;;;5058066;28;20037;-83
2022/10/17 04:31:55;;;;;;;10.60;4.65;;;11.70;99.90;;;;;;5057836;28;20051;-82
2022/10/17 04:34:21;;;;;;;9.80;4.93;;;11.70;99.90;;;;;;5094753;28;20173;-83
2022/10/17 04:36:48;;;;;;;10.45;5.22;;;11.80;99.90;;;;;;5094272;28;20061;-81
2022/10/17 04:39:15;;;;;;;11.07;5.20;;;11.80;99.90;;;;;;5112002;28;20046;-82
2022/10/17 04:41:41;;;;;;;11.02;5.63;;;11.80;99.90;;;;;;5094869;28;20140;-82
2022/10/17 04:44:09;;;;;;;15.18;6.35;;;11.90;99.90;;;;;;5090718;28;20036;-82
2022/10/17 04:46:36;;;;;;;14.15;5.93;;;11.90;99.90;;;;;;5074588;28;20054;-82
2022/10/17 04:49:03;;;;;;;13.07;6.63;;;11.90;99.90;;;;;;5074450;28;20028;-82
2022/10/17 04:51:29;;;;;;;12.77;6.63;;;12.00;99.90;;;;;;5090983;28;20039;-82
2022/10/17 04:53:56;;;;;;;18.52;6.15;;;12.00;99.90;;;;;;5094106;28;20044;-82
2022/10/17 04:56:23;;;;;;;14.15;6.03;;;12.00;99.90;;;;;;5094837;28;20138;-82
2022/10/17 04:58:51;;;;;;;12.02;6.20;;;12.10;99.90;;;;;;5110946;28;20032;-82
2022/10/17 05:01:21;;;;;;;12.00;5.40;;;12.10;99.90;;;;;;5111191;28;20039;-82
2022/10/17 05:03:48;;;;;;;10.82;5.97;;;12.20;99.90;;;;;;5110535;28;20079;-81
2022/10/17 05:06:20;;;;;;;16.33;5.70;;;12.20;99.90;;;;;;5110914;28;20040;-82
2022/10/17 05:08:47;;;;;;;13.98;6.07;;;12.20;99.90;;;;;;5127900;28;20078;-82
2022/10/17 05:11:17;;;;;;;15.40;5.95;;;12.20;99.90;;;;;;5110787;28;20386;-83
2022/10/17 05:13:44;;;;;;;11.48;5.40;;;12.30;99.90;;;;;;5110828;28;20047;-82
2022/10/17 05:16:11;;;;;;;10.63;5.22;;;12.30;99.90;;;;;;5089817;28;20465;-82
2022/10/17 05:18:37;;;;;;;12.45;4.78;;;12.30;99.90;;;;;;5074362;28;20072;-82
2022/10/17 05:21:04;;;;;;;10.50;4.90;;;12.40;99.90;;;;;;5084984;28;20036;-82
2022/10/17 05:23:31;;;;;;;9.30;4.68;;;12.50;99.90;;;;;;5094144;28;20035;-82
2022/10/17 05:25:58;;;;;;;9.32;4.50;;;12.50;99.90;;;;;;5073039;28;20036;-82
2022/10/17 05:28:25;;;;;;;9.27;4.68;;;12.60;99.90;;;;;;5110240;28;20043;-82
2022/10/17 05:30:51;;;;;;;10.15;4.88;;;12.60;99.90;;;;;;5093208;28;20040;-82
2022/10/17 05:33:18;;;;;;;7.20;4.30;;;12.50;99.90;;;;;;5109790;28;20036;-82
2022/10/17 05:35:45;;;;;;;11.65;4.60;;;12.60;99.90;;;;;;5070646;28;20123;-82
2022/10/17 05:38:11;;;;;;;8.00;4.43;;;12.60;99.90;;;;;;5074536;28;20044;-82
2022/10/17 05:40:38;;;;;;;11.50;4.82;;;12.70;99.90;;;;;;5093543;28;20121;-82
2022/10/17 05:43:05;;;;;;;9.98;4.57;;;12.70;99.90;;;;;;5076399;28;20040;-82
2022/10/17 05:45:32;;;;;;;8.57;4.90;;;12.70;99.90;;;;;;5126933;28;20048;-81
2022/10/17 05:47:58;;;;;;;6.70;4.32;;;12.80;99.90;;;;;;5089743;28;20412;-82
2022/10/17 05:50:25;;;;;;;10.43;4.60;;;12.70;99.90;;;;;;5076723;28;20089;-82
2022/10/17 05:52:53;;;;;;;7.78;4.60;;;12.80;99.90;;;;;;5076833;28;20101;-82
2022/10/17 05:55:20;;;;;;;8.13;4.35;;;12.80;99.90;;;;;;5109448;28;20399;-82
2022/10/17 05:57:47;;;;;;;8.80;4.25;;;12.80;99.90;;;;;;5109797;28;20416;-82
2022/10/17 06:00:14;;;;;;;10.88;5.05;;;12.80;99.90;;;;;;5092842;28;20044;-82
2022/10/17 06:02:42;;;;;;;7.85;4.60;;;12.80;99.90;;;;;;5092543;28;20519;-82
2022/10/17 06:05:08;;;;;;;11.32;4.35;;;12.80;99.90;;;;;;5099150;28;20384;-81
2022/10/17 06:07:35;;;;;;;12.18;4.78;;;12.80;99.90;;;;;;5092098;28;20039;-82
2022/10/17 06:10:02;;;;;;;8.57;4.78;;;12.80;99.90;;;;;;5092702;28;20048;-81
2022/10/17 06:12:29;;;;;;;10.70;5.03;;;12.80;99.90;;;;;;5109578;28;20039;-82
2022/10/17 06:14:56;;;;;;;9.63;4.68;;;12.90;99.90;;;;;;5092952;28;20036;-82
2022/10/17 06:17:22;;;;;;;9.15;4.70;;;12.90;99.90;;;;;;5092790;28;20036;-82
2022/10/17 06:19:49;;;;;;;9.13;4.80;;;13.00;99.90;;;;;;5092718;28;20079;-82
2022/10/17 06:22:16;;;;;;;7.40;4.70;;;13.00;99.90;;;;;;5092565;28;20444;-82
2022/10/17 06:24:42;;;;;;;8.45;4.82;;;12.90;99.90;;;;;;5109658;28;20032;-82
2022/10/17 06:27:09;;;;;;;10.82;5.15;;;13.00;99.90;;;;;;5108885;28;20040;-82
2022/10/17 06:29:36;;;;;;;9.98;5.20;;;13.00;99.90;;;;;;5092736;28;20032;-82
2022/10/17 06:32:03;;;;;;;12.80;5.22;;;13.10;99.90;;;;;;5083483;28;20108;-81
2022/10/17 06:34:30;;;;;;;20.23;5.05;;;13.10;99.90;;;;;;5060289;28;20024;-81
2022/10/17 06:36:56;;;;;;;12.15;4.97;;;13.20;99.90;;;;;;5087991;28;20109;-82
2022/10/17 06:39:25;;;;;;;7.20;4.55;;;13.20;99.90;;;;;;5069255;28;20047;-82
2022/10/17 06:41:52;;;;;;;10.55;5.32;;;13.20;99.90;;;;;;5057699;28;20492;-82
2022/10/17 06:44:19;;;;;;;9.13;4.72;;;13.30;99.90;;;;;;5075279;28;20044;-82
2022/10/17 06:46:45;;;;;;;7.80;4.95;;;13.30;99.90;;;;;;5078589;28;20041;-83
2022/10/17 06:49:12;;;;;;;11.15;5.25;;;13.30;99.90;;;;;;5088951;28;20484;-83
2022/10/17 06:51:39;;;;;;;8.85;4.60;;;13.30;99.90;;;;;;5083980;28;20048;-84
2022/10/17 06:54:05;;;;;;;9.75;5.07;;;13.40;99.90;;;;;;5073969;28;20037;-83
2022/10/17 06:56:32;;;;;;;14.60;5.35;;;13.40;99.90;;;;;;5076301;28;20039;-83
2022/10/17 06:58:59;;;;;;;11.00;5.95;;;13.40;99.90;;;;;;5092138;28;20036;-85
2022/10/17 07:01:27;;;;;;;12.38;5.05;;;13.50;99.90;;;;;;5082157;28;20288;-84
2022/10/17 07:03:54;;;;;;;9.93;5.10;;;13.60;99.90;;;;;;5092068;28;20511;-84
2022/10/17 07:06:23;;;;;;;15.02;5.15;;;13.60;99.90;;;;;;5108890;28;20040;-82
2022/10/17 07:08:50;;;;;;;8.98;5.13;;;13.80;99.90;;;;;;5108826;28;20115;-81
2022/10/17 07:11:19;;;;;;;8.40;4.78;;;13.70;99.90;;;;;;5072184;28;20057;-85
2022/10/17 07:13:46;;;;;;;9.65;5.07;;;13.80;99.90;;;;;;5125741;28;20074;-82
2022/10/17 07:16:14;;;;;;;10.23;5.10;;;13.80;99.90;;;;;;5108590;28;20039;-82
2022/10/17 07:18:41;;;;;;;9.02;4.93;;;13.90;99.90;;;;;;5108565;28;20111;-82
2022/10/17 07:21:08;;;;;;;11.32;5.57;;;14.00;99.90;;;;;;5108278;28;20040;-82
2022/10/17 07:23:36;;;;;;;9.43;5.03;;;14.00;99.90;;;;;;5108731;28;20044;-82
2022/10/17 07:26:06;;;;;;;8.60;5.18;;;14.00;99.90;;;;;;5092087;28;20044;-82
2022/10/17 07:28:35;;;;;;;9.35;5.05;;;14.10;99.90;;;;;;5125721;28;20078;-83
2022/10/17 07:31:04;;;;;;;9.75;5.05;;;14.10;99.90;;;;;;5106695;28;20111;-83
2022/10/17 07:33:31;;;;;;;10.02;5.45;;;14.10;99.90;;;;;;5107708;28;20058;-83
2022/10/17 07:35:59;;;;;;;8.48;4.88;;;14.20;99.90;;;;;;5090813;28;20040;-83
2022/10/17 07:38:27;;;;;;;10.75;5.13;;;14.30;99.90;;;;;;5090831;28;20113;-83
2022/10/17 07:40:55;;;;;;;9.13;5.13;;;14.40;99.90;;;;;;5107915;28;20032;-83
2022/10/17 07:43:23;;;;;;;10.52;5.25;;;14.50;99.90;;;;;;5107706;28;20127;-83
2022/10/17 07:45:50;;;;;;;9.65;4.93;;;14.50;99.90;;;;;;5107636;28;20047;-83
2022/10/17 07:48:17;;;;;;;11.05;5.15;;;14.50;99.90;;;;;;5091176;28;20047;-83
2022/10/17 07:50:44;;;;;;;8.48;5.15;;;14.60;99.90;;;;;;5123009;28;20082;-83
2022/10/17 07:53:11;;;;;;;9.10;4.97;;;14.60;99.90;;;;;;5090473;28;20469;-83
2022/10/17 07:55:39;;;;;;;9.70;5.60;;;14.70;99.90;;;;;;5110245;28;20032;-82
2022/10/17 07:58:07;;;;;;;10.02;5.55;;;14.70;99.90;;;;;;5111952;28;20042;-82
2022/10/17 08:00:35;;;;;;;9.40;5.30;;;14.70;99.90;;;;;;5094292;28;20047;-83
2022/10/17 08:03:02;;;;;;;8.25;4.85;;;14.80;99.90;;;;;;5083428;28;20132;-81
2022/10/17 08:05:29;;;;;;;10.77;5.60;;;14.90;99.90;;;;;;5094251;28;20055;-82
2022/10/17 08:07:56;;;;;;;10.60;5.30;;;14.90;99.90;;;;;;5110976;28;20050;-82
2022/10/17 08:10:28;;;;;;;10.77;5.05;;;15.00;99.90;;;;;;5110751;28;20052;-82
2022/10/17 08:12:56;;;;;;;10.15;5.20;;;15.10;99.90;;;;;;5088180;28;20102;-82
2022/10/17 08:15:24;;;;;;;8.20;4.68;;;15.10;99.90;;;;;;5106724;28;20036;-82
2022/10/17 08:17:51;;;;;;;8.13;4.60;;;15.10;99.90;;;;;;5105073;28;20036;-82
2022/10/17 08:20:17;;;;;;;10.23;5.20;;;15.10;99.90;;;;;;5094403;28;20522;-82
2022/10/17 08:22:51;;;;;;;12.35;5.07;;;15.20;99.90;;;;;;5111053;28;20055;-82
2022/10/17 08:25:18;;;;;;;8.18;4.70;;;15.20;99.90;;;;;;5111060;28;20389;-82
2022/10/17 08:27:44;;;;;;;10.80;4.90;;;15.40;99.90;;;;;;5095003;28;20126;-82
2022/10/17 08:30:11;;;;;;;10.27;4.95;;;15.50;99.90;;;;;;5111067;28;20074;-82
2022/10/17 08:32:38;;;;;;;8.85;4.55;;;15.60;99.90;;;;;;5093813;28;20063;-81
2022/10/17 08:35:05;;;;;;;9.23;4.93;;;15.70;99.90;;;;;;5127743;28;20028;-84
2022/10/17 08:37:32;;;;;;;15.13;5.28;;;15.70;99.90;;;;;;5127279;28;20081;-83
2022/10/17 08:39:59;;;;;;;9.63;5.00;;;15.90;99.90;;;;;;5078251;28;20495;-83
2022/10/17 08:42:50;;;;;;;15.57;4.63;;;15.90;99.90;;;;;;5110851;28;20092;-82
2022/10/17 08:45:35;;;;;;;11.88;4.82;;;16.00;99.90;;;;;;5110344;28;20801;-82
2022/10/17 08:48:07;;;;;;;10.48;4.40;;;16.00;99.90;;;;;;5128158;28;20043;-82
2022/10/17 08:50:51;;;;;;;7.20;4.07;;;16.10;99.90;;;;;;5091875;28;20410;-82
2022/10/17 08:53:34;;;;;;;7.03;4.40;;;16.10;99.90;;;;;;5127035;28;20075;-82
2022/10/17 08:56:17;;;;;;;9.25;4.10;;;16.10;99.90;;;;;;5110915;28;20043;-82
2022/10/17 08:58:44;;;;;;;8.73;4.50;;;16.10;99.90;;;;;;5110712;28;20485;-82
2022/10/17 09:01:33;;;;;;;9.40;4.85;;;16.10;99.90;;;;;;5126964;28;20036;-82
2022/10/17 09:04:08;;;;;;;7.78;4.45;;;16.20;99.90;;;;;;5110841;28;20039;-82
2022/10/17 09:06:56;;;;;;;8.40;3.88;;;16.20;99.90;;;;;;5109083;28;20180;-82
2022/10/17 09:09:25;;;;;;;8.93;4.25;;;16.20;99.90;;;;;;5126522;28;20040;-82
2022/10/17 09:12:03;;;;;;;7.05;4.10;;;16.30;99.90;;;;;;5126794;28;20044;-82
2022/10/17 09:15:23;;;;;;;8.40;3.95;;;16.30;99.90;;;;;;5160672;27;20039;-82
2022/10/17 09:17:57;;;;;;;7.47;3.85;;;16.30;99.90;;;;;;5072649;28;20124;-82
2022/10/17 09:20:31;;;;;;;6.07;3.47;;;16.40;99.90;;;;;;5106372;28;20388;-82
2022/10/17 09:23:04;;;;;;;7.40;4.00;;;16.40;99.90;;;;;;5106694;28;20040;-83
2022/10/17 09:25:46;;;;;;;10.35;4.22;;;16.50;99.90;;;;;;5102782;28;20407;-83
2022/10/17 09:28:26;;;;;;;9.93;4.22;;;16.50;99.90;;;;;;5110090;28;20083;-83
2022/10/17 09:31:11;;;;;;;9.55;4.22;;;16.60;99.90;;;;;;5102948;28;20044;-83
2022/10/17 09:33:44;;;;;;;7.23;3.90;;;16.60;99.90;;;;;;5108561;28;20036;-82
2022/10/17 09:36:18;;;;;;;9.88;3.40;;;16.60;99.90;;;;;;5107533;28;20487;-82
2022/10/17 09:38:49;;;;;;;6.75;3.83;;;16.60;99.90;;;;;;5109040;28;20115;-82
2022/10/17 09:41:23;;;;;;;7.68;3.92;;;16.60;99.90;;;;;;5108539;28;20089;-83
2022/10/17 09:43:54;;;;;;;7.82;3.78;;;16.70;99.90;;;;;;5109386;28;20524;-83
2022/10/17 09:46:31;;;;;;;6.72;3.33;;;16.70;99.90;;;;;;5109162;28;20052;-82
2022/10/17 09:49:05;;;;;;;8.00;4.47;;;16.70;99.90;;;;;;5124615;28;20492;-82
2022/10/17 09:51:32;;;;;;;7.07;3.85;;;16.70;99.90;;;;;;5108604;28;20047;-83
2022/10/17 09:54:02;;;;;;;8.45;3.92;;;16.70;99.90;;;;;;5109533;28;20036;-83
2022/10/17 09:56:29;;;;;;;6.85;3.75;;;16.70;99.90;;;;;;5109156;28;20036;-83
2022/10/17 09:58:57;;;;;;;8.50;3.97;;;16.70;99.90;;;;;;5092441;28;20047;-83
2022/10/17 10:01:29;;;;;;;8.73;3.80;;;16.70;99.90;;;;;;5076034;28;20028;-82
2022/10/17 10:04:16;;;;;;;11.65;4.35;;;16.70;99.90;;;;;;5109916;28;20048;-83
2022/10/17 10:07:11;;;;;;;10.60;4.65;;;16.70;99.90;;;;;;5108417;28;20040;-82
2022/10/17 10:09:38;;;;;;;6.85;4.15;;;16.60;99.90;;;;;;5108716;28;20183;-82
2022/10/17 10:12:19;;;;;;;12.93;4.00;;;16.60;99.90;;;;;;5092641;28;20131;-83
2022/10/17 10:14:47;;;;;;;17.40;4.45;;;16.60;99.90;;;;;;5126452;28;20075;-85
2022/10/17 10:17:38;;;;;;;6.90;3.97;;;16.60;99.90;;;;;;5092478;28;20036;-82
2022/10/17 10:20:45;;;;;;;9.50;4.38;;;16.60;99.90;;;;;;5125330;28;20510;-83
2022/10/17 10:23:20;;;;;;;10.25;4.10;;;16.60;99.90;;;;;;5108859;28;20420;-83
2022/10/17 10:25:57;;;;;;;8.80;4.43;;;16.60;99.90;;;;;;5108564;28;20044;-84
2022/10/17 10:28:30;;;;;;;8.07;4.55;;;16.50;99.90;;;;;;5108633;28;20047;-82
2022/10/17 10:31:01;;;;;;;7.40;4.10;;;16.50;99.90;;;;;;5109165;28;20086;-83
2022/10/17 10:33:29;;;;;;;10.23;4.40;;;16.50;99.90;;;;;;5093964;28;20036;-84
2022/10/17 10:36:00;;;;;;;8.15;4.47;;;16.50;99.90;;;;;;5074444;28;20040;-83
2022/10/17 10:38:28;;;;;;;10.23;4.43;;;16.40;99.90;;;;;;5108977;28;20048;-84
2022/10/17 10:41:06;;;;;;;7.72;4.43;;;16.40;99.90;;;;;;5108350;28;20047;-83
2022/10/17 10:43:42;;;;;;;9.02;4.30;;;16.40;99.90;;;;;;5091773;28;20101;-83
2022/10/17 10:46:26;;;;;;;8.75;4.30;;;16.40;99.90;;;;;;5108894;28;20515;-83
2022/10/17 10:48:59;;;;;;;10.60;4.78;;;16.30;99.90;;;;;;5104706;28;20112;-83
2022/10/17 10:51:37;;;;;;;10.25;4.30;;;16.30;99.90;;;;;;5101070;28;20496;-82
2022/10/17 10:54:37;;;;;;;8.95;4.70;;;16.30;99.90;;;;;;5103381;28;20032;-84
2022/10/17 10:57:09;;;;;;;8.38;4.40;;;16.20;99.90;;;;;;5108326;28;20109;-83
2022/10/17 11:00:01;;;;;;;8.73;4.70;;;16.20;99.90;;;;;;5106920;28;20036;-84
2022/10/17 11:02:42;;;;;;;10.95;5.03;;;16.20;99.90;;;;;;5105411;28;20080;-83
2022/10/17 11:05:17;;;;;;;8.48;5.10;;;16.20;99.90;;;;;;5101272;28;20044;-84
2022/10/17 11:07:54;;;;;;;9.70;5.00;;;16.10;99.90;;;;;;5108490;28;20385;-84
2022/10/17 11:10:36;;;;;;;8.48;4.80;;;16.10;99.90;;;;;;5108139;28;20113;-84
2022/10/17 11:13:10;;;;;;;9.93;4.65;;;16.10;99.90;;;;;;5108609;28;20448;-83
2022/10/17 11:16:03;;;;;;;10.30;4.90;;;16.10;99.90;;;;;;5108914;28;20043;-83
2022/10/17 11:18:51;;;;;;;8.45;4.85;;;16.10;99.90;;;;;;5105502;28;20040;-83
2022/10/17 11:21:31;;;;;;;12.73;4.65;;;16.10;99.90;;;;;;5102715;28;20036;-84
2022/10/17 11:24:01;;;;;;;7.22;4.35;;;16.10;99.90;;;;;;5122160;28;20033;-84
2022/10/17 11:26:33;;;;;;;12.70;5.45;;;16.10;99.90;;;;;;5099469;28;20051;-85
2022/10/17 11:29:03;;;;;;;9.35;4.28;;;16.10;99.90;;;;;;5097551;28;20043;-86
2022/10/17 11:31:35;;;;;;;9.40;4.65;;;16.10;99.90;;;;;;5103355;28;20037;-82
2022/10/17 11:34:10;;;;;;;8.88;4.45;;;16.20;99.90;;;;;;5109329;28;20038;-83
2022/10/17 11:36:41;;;;;;;12.63;6.55;;;16.20;99.90;;;;;;5125600;28;20469;-83
2022/10/17 11:39:19;;;;;;;11.25;6.00;;;16.20;99.90;;;;;;5098731;28;20040;-84
2022/10/17 11:41:57;;;;;;;9.68;5.07;;;16.20;99.90;;;;;;5108534;28;20093;-83
2022/10/17 11:44:41;;;;;;;10.45;5.28;;;16.20;99.90;;;;;;5112134;28;20047;-84
2022/10/17 11:47:27;;;;;;;10.02;5.15;;;16.20;99.90;;;;;;5111464;28;20861;-84
2022/10/17 11:50:04;;;;;;;7.20;4.65;;;16.20;99.90;;;;;;5097410;28;20093;-84
2022/10/17 11:52:42;;;;;;;8.45;4.72;;;16.20;99.90;;;;;;5124323;28;20040;-81
2022/10/17 11:55:29;;;;;;;10.50;5.50;;;16.10;99.90;;;;;;5092041;28;20086;-83
2022/10/17 11:58:31;;;;;;;9.23;5.00;;;16.20;99.90;;;;;;5091579;28;20048;-83
2022/10/17 12:01:14;;;;;;;10.63;6.25;;;16.10;99.90;;;;;;5100273;28;20036;-84
2022/10/17 12:03:59;;;;;;;9.95;5.43;;;16.10;99.90;;;;;;5111210;28;20043;-84
2022/10/17 12:06:48;;;;;;;11.95;5.10;;;16.10;99.90;;;;;;5119468;28;20039;-83
2022/10/17 12:09:31;;;;;;;8.77;5.20;;;16.10;99.90;;;;;;5108856;28;20104;-84
2022/10/17 12:12:00;;;;;;;9.13;4.47;;;16.10;99.90;;;;;;5101060;28;20040;-83
2022/10/17 12:14:45;;;;;;;9.57;5.05;;;16.20;99.90;;;;;;5111761;28;20042;-84
2022/10/17 12:17:33;;;;;;;8.68;5.03;;;16.10;99.90;;;;;;5109193;28;20435;-83
2022/10/17 12:20:19;;;;;;;8.35;4.78;;;16.10;99.90;;;;;;5111591;28;20042;-83
2022/10/17 12:22:47;;;;;;;7.53;4.68;;;16.10;99.90;;;;;;5096674;28;20072;-83
2022/10/17 12:25:23;;;;;;;8.52;4.80;;;16.10;99.90;;;;;;5118630;28;20123;-83
2022/10/17 12:27:50;;;;;;;10.20;5.43;;;16.10;99.90;;;;;;5127870;28;20067;-83
2022/10/17 12:30:26;;;;;;;11.52;5.20;;;16.10;99.90;;;;;;5110682;28;20040;-83
2022/10/17 12:32:54;;;;;;;;;;;16.10;99.90;;;;;;5094570;28;20078;-83
2022/10/17 12:35:23;;;;;;;9.43;4.50;;;16.20;99.90;;;;;;5128324;28;19965;-83
2022/10/17 12:37:49;;;;;;;8.95;4.90;;;16.20;99.90;;;;;;5110470;28;20032;-83
2022/10/17 12:40:42;;;;;;;9.05;5.60;;;16.20;99.90;;;;;;5110872;28;20059;-82
2022/10/17 12:43:15;;;;;;;8.23;4.63;;;16.30;99.90;;;;;;5121266;28;20105;-83
2022/10/17 12:45:50;;;;;;;8.50;4.55;;;16.30;99.90;;;;;;5110316;28;20052;-82
2022/10/17 12:48:35;;;;;;;8.93;4.77;;;16.40;99.90;;;;;;5111276;28;20047;-82
2022/10/17 12:51:09;;;;;;;6.40;3.83;;;16.40;99.90;;;;;;5127449;28;20553;-83
2022/10/17 12:53:45;;;;;;;9.02;4.20;;;16.40;99.90;;;;;;5110256;28;20040;-82
2022/10/17 12:56:18;;;;;;;7.00;3.67;;;16.50;99.90;;;;;;5127210;28;20040;-82
2022/10/17 12:58:47;;;;;;;5.85;3.53;;;16.40;99.90;;;;;;5110620;28;20040;-81
2022/10/17 13:01:27;;;;;;;7.03;4.10;;;16.40;99.90;;;;;;5094528;28;20032;-82
2022/10/17 13:03:55;;;;;;;7.45;4.47;;;16.40;99.90;;;;;;5126875;28;20064;-83
2022/10/17 13:06:26;;;;;;;7.22;4.47;;;16.40;99.90;;;;;;5090428;28;20032;-83
2022/10/17 13:09:14;;;;;;;6.57;3.67;;;16.40;99.90;;;;;;5107184;28;20044;-84